sensor_id;sensor_type;location;lat;lon;timestamp;P1;durP1;ratioP1;P2;durP2;ratioP2
2542;SDS011;1116;51.502;7.414;2023-07-31T00:02:03;6.43;;;3.80;;
2542;SDS011;1116;51.502;7.414;2023-07-31T00:04:36;5.27;;;3.70;;
2542;SDS011;1116;51.502;7.414;2023-07-31T00:07:07;6.37;;;4.20;;
2542;SDS011;1116;51.502;7.414;2023-07-31T00:09:39;4.60;;;3.60;;
2542;SDS011;1116;51.502;7.414;2023-07-31T00:12:10;5.67;;;3.80;;
2542;SDS011;1116;51.502;7.414;2023-07-31T00:14:46;5.90;;;3.23;;
2542;SDS011;1116;51.502;7.414;2023-07-31T00:17:18;4.63;;;3.10;;
2542;SDS011;1116;51.502;7.414;2023-07-31T00:19:49;6.10;;;3.90;;
2542;SDS011;1116;51.502;7.414;2023-07-31T00:22:21;8.10;;;4.00;;
2542;SDS011;1116;51.502;7.414;2023-07-31T00:24:52;8.87;;;3.53;;
2542;SDS011;1116;51.502;7.414;2023-07-31T00:27:23;6.37;;;3.60;;
2542;SDS011;1116;51.502;7.414;2023-07-31T00:29:57;6.17;;;3.60;;
2542;SDS011;1116;51.502;7.414;2023-07-31T00:32:28;5.80;;;3.80;;
2542;SDS011;1116;51.502;7.414;2023-07-31T00:34:59;6.00;;;3.53;;
2542;SDS011;1116;51.502;7.414;2023-07-31T00:37:30;8.57;;;3.97;;
2542;SDS011;1116;51.502;7.414;2023-07-31T00:40:01;4.30;;;2.80;;
2542;SDS011;1116;51.502;7.414;2023-07-31T00:42:33;8.40;;;3.60;;
2542;SDS011;1116;51.502;7.414;2023-07-31T00:45:07;8.70;;;4.17;;
2542;SDS011;1116;51.502;7.414;2023-07-31T00:47:38;8.00;;;3.80;;
2542;SDS011;1116;51.502;7.414;2023-07-31T00:50:09;8.07;;;3.90;;
2542;SDS011;1116;51.502;7.414;2023-07-31T00:52:41;6.70;;;4.40;;
2542;SDS011;1116;51.502;7.414;2023-07-31T00:55:14;6.30;;;3.43;;
2542;SDS011;1116;51.502;7.414;2023-07-31T00:57:46;6.07;;;3.70;;
2542;SDS011;1116;51.502;7.414;2023-07-31T01:00:22;6.00;;;4.00;;
2542;SDS011;1116;51.502;7.414;2023-07-31T01:02:53;7.80;;;4.00;;
2542;SDS011;1116;51.502;7.414;2023-07-31T01:05:25;7.27;;;3.93;;
2542;SDS011;1116;51.502;7.414;2023-07-31T01:08:05;8.77;;;4.30;;
2542;SDS011;1116;51.502;7.414;2023-07-31T01:10:43;10.50;;;5.60;;
2542;SDS011;1116;51.502;7.414;2023-07-31T01:13:19;9.73;;;4.67;;
2542;SDS011;1116;51.502;7.414;2023-07-31T01:15:53;10.37;;;4.87;;
2542;SDS011;1116;51.502;7.414;2023-07-31T01:18:24;9.40;;;4.37;;
2542;SDS011;1116;51.502;7.414;2023-07-31T01:20:58;9.07;;;4.87;;
2542;SDS011;1116;51.502;7.414;2023-07-31T01:23:46;8.40;;;4.60;;
2542;SDS011;1116;51.502;7.414;2023-07-31T01:26:32;9.03;;;4.83;;
2542;SDS011;1116;51.502;7.414;2023-07-31T01:29:07;9.50;;;5.20;;
2542;SDS011;1116;51.502;7.414;2023-07-31T01:31:43;9.87;;;4.60;;
2542;SDS011;1116;51.502;7.414;2023-07-31T01:34:17;7.90;;;4.43;;
2542;SDS011;1116;51.502;7.414;2023-07-31T01:36:49;12.70;;;4.03;;
2542;SDS011;1116;51.502;7.414;2023-07-31T01:39:20;8.83;;;4.40;;
2542;SDS011;1116;51.502;7.414;2023-07-31T01:41:54;12.53;;;5.50;;
2542;SDS011;1116;51.502;7.414;2023-07-31T01:44:25;12.40;;;5.17;;
2542;SDS011;1116;51.502;7.414;2023-07-31T01:46:57;9.13;;;4.87;;
2542;SDS011;1116;51.502;7.414;2023-07-31T01:49:29;9.77;;;4.70;;
2542;SDS011;1116;51.502;7.414;2023-07-31T01:52:03;10.13;;;5.00;;
2542;SDS011;1116;51.502;7.414;2023-07-31T01:54:35;10.40;;;4.80;;
2542;SDS011;1116;51.502;7.414;2023-07-31T01:57:09;8.40;;;5.33;;
2542;SDS011;1116;51.502;7.414;2023-07-31T01:59:40;9.07;;;4.70;;
2542;SDS011;1116;51.502;7.414;2023-07-31T02:02:13;8.13;;;4.67;;
2542;SDS011;1116;51.502;7.414;2023-07-31T02:04:45;9.90;;;4.73;;
2542;SDS011;1116;51.502;7.414;2023-07-31T02:07:16;10.37;;;4.27;;
2542;SDS011;1116;51.502;7.414;2023-07-31T02:09:47;7.73;;;4.37;;
2542;SDS011;1116;51.502;7.414;2023-07-31T02:12:21;9.13;;;4.23;;
2542;SDS011;1116;51.502;7.414;2023-07-31T02:14:52;10.43;;;4.40;;
2542;SDS011;1116;51.502;7.414;2023-07-31T02:17:24;6.30;;;3.73;;
2542;SDS011;1116;51.502;7.414;2023-07-31T02:19:54;9.70;;;4.40;;
2542;SDS011;1116;51.502;7.414;2023-07-31T02:22:26;6.57;;;4.47;;
2542;SDS011;1116;51.502;7.414;2023-07-31T02:24:57;8.17;;;3.77;;
2542;SDS011;1116;51.502;7.414;2023-07-31T02:27:31;9.17;;;4.33;;
2542;SDS011;1116;51.502;7.414;2023-07-31T02:30:02;9.47;;;4.23;;
2542;SDS011;1116;51.502;7.414;2023-07-31T02:32:34;9.73;;;3.90;;
2542;SDS011;1116;51.502;7.414;2023-07-31T02:35:05;11.17;;;4.07;;
2542;SDS011;1116;51.502;7.414;2023-07-31T02:37:37;8.27;;;4.20;;
2542;SDS011;1116;51.502;7.414;2023-07-31T02:40:09;11.37;;;4.27;;
2542;SDS011;1116;51.502;7.414;2023-07-31T02:42:43;9.57;;;3.90;;
2542;SDS011;1116;51.502;7.414;2023-07-31T02:45:16;8.67;;;4.40;;
2542;SDS011;1116;51.502;7.414;2023-07-31T02:47:47;6.10;;;4.20;;
2542;SDS011;1116;51.502;7.414;2023-07-31T02:50:18;7.63;;;4.30;;
2542;SDS011;1116;51.502;7.414;2023-07-31T02:52:49;12.67;;;4.40;;
2542;SDS011;1116;51.502;7.414;2023-07-31T02:55:20;10.57;;;4.27;;
2542;SDS011;1116;51.502;7.414;2023-07-31T02:57:53;11.53;;;4.67;;
2542;SDS011;1116;51.502;7.414;2023-07-31T03:00:25;7.97;;;4.43;;
2542;SDS011;1116;51.502;7.414;2023-07-31T03:02:57;8.40;;;3.80;;
2542;SDS011;1116;51.502;7.414;2023-07-31T03:05:28;10.60;;;4.57;;
2542;SDS011;1116;51.502;7.414;2023-07-31T03:07:59;9.53;;;4.73;;
2542;SDS011;1116;51.502;7.414;2023-07-31T03:10:30;11.27;;;4.63;;
2542;SDS011;1116;51.502;7.414;2023-07-31T03:13:04;8.80;;;3.80;;
2542;SDS011;1116;51.502;7.414;2023-07-31T03:15:36;8.40;;;5.03;;
2542;SDS011;1116;51.502;7.414;2023-07-31T03:18:07;8.30;;;4.40;;
2542;SDS011;1116;51.502;7.414;2023-07-31T03:20:41;10.33;;;5.00;;
2542;SDS011;1116;51.502;7.414;2023-07-31T03:23:13;9.80;;;4.60;;
2542;SDS011;1116;51.502;7.414;2023-07-31T03:25:55;8.43;;;4.23;;
2542;SDS011;1116;51.502;7.414;2023-07-31T03:28:29;7.90;;;4.80;;
2542;SDS011;1116;51.502;7.414;2023-07-31T03:31:01;10.80;;;4.40;;
2542;SDS011;1116;51.502;7.414;2023-07-31T03:33:32;11.33;;;4.90;;
2542;SDS011;1116;51.502;7.414;2023-07-31T03:36:04;7.90;;;4.50;;
2542;SDS011;1116;51.502;7.414;2023-07-31T03:38:36;11.43;;;4.50;;
2542;SDS011;1116;51.502;7.414;2023-07-31T03:41:07;9.80;;;4.80;;
2542;SDS011;1116;51.502;7.414;2023-07-31T03:43:41;10.90;;;4.87;;
2542;SDS011;1116;51.502;7.414;2023-07-31T03:46:12;11.77;;;5.00;;
2542;SDS011;1116;51.502;7.414;2023-07-31T03:48:43;10.60;;;4.37;;
2542;SDS011;1116;51.502;7.414;2023-07-31T03:51:14;9.00;;;4.87;;
2542;SDS011;1116;51.502;7.414;2023-07-31T03:53:46;9.10;;;4.53;;
2542;SDS011;1116;51.502;7.414;2023-07-31T03:56:17;9.30;;;4.70;;
2542;SDS011;1116;51.502;7.414;2023-07-31T03:58:51;6.93;;;4.00;;
2542;SDS011;1116;51.502;7.414;2023-07-31T04:01:22;11.07;;;4.90;;
2542;SDS011;1116;51.502;7.414;2023-07-31T04:03:54;9.80;;;5.10;;
2542;SDS011;1116;51.502;7.414;2023-07-31T04:06:25;10.23;;;4.13;;
2542;SDS011;1116;51.502;7.414;2023-07-31T04:08:56;9.60;;;4.33;;
2542;SDS011;1116;51.502;7.414;2023-07-31T04:11:27;9.43;;;4.50;;
2542;SDS011;1116;51.502;7.414;2023-07-31T04:14:01;9.37;;;4.30;;
2542;SDS011;1116;51.502;7.414;2023-07-31T04:16:32;6.83;;;4.50;;
2542;SDS011;1116;51.502;7.414;2023-07-31T04:19:04;10.83;;;4.60;;
2542;SDS011;1116;51.502;7.414;2023-07-31T04:21:36;8.43;;;4.70;;
2542;SDS011;1116;51.502;7.414;2023-07-31T04:24:07;11.47;;;4.60;;
2542;SDS011;1116;51.502;7.414;2023-07-31T04:26:38;7.90;;;4.00;;
2542;SDS011;1116;51.502;7.414;2023-07-31T04:29:12;9.40;;;4.50;;
2542;SDS011;1116;51.502;7.414;2023-07-31T04:31:43;8.47;;;4.03;;
2542;SDS011;1116;51.502;7.414;2023-07-31T04:34:14;9.50;;;4.77;;
2542;SDS011;1116;51.502;7.414;2023-07-31T04:36:46;9.40;;;4.73;;
2542;SDS011;1116;51.502;7.414;2023-07-31T04:39:17;9.47;;;4.10;;
2542;SDS011;1116;51.502;7.414;2023-07-31T04:41:48;7.33;;;4.90;;
2542;SDS011;1116;51.502;7.414;2023-07-31T04:44:22;8.13;;;4.63;;
2542;SDS011;1116;51.502;7.414;2023-07-31T04:47:09;12.03;;;4.70;;
2542;SDS011;1116;51.502;7.414;2023-07-31T04:49:40;7.27;;;4.60;;
2542;SDS011;1116;51.502;7.414;2023-07-31T04:52:11;9.63;;;4.37;;
2542;SDS011;1116;51.502;7.414;2023-07-31T04:54:42;8.03;;;4.60;;
2542;SDS011;1116;51.502;7.414;2023-07-31T04:57:13;9.37;;;4.90;;
2542;SDS011;1116;51.502;7.414;2023-07-31T04:59:47;10.00;;;4.50;;
2542;SDS011;1116;51.502;7.414;2023-07-31T05:02:18;8.80;;;4.17;;
2542;SDS011;1116;51.502;7.414;2023-07-31T05:04:52;9.00;;;4.00;;
2542;SDS011;1116;51.502;7.414;2023-07-31T05:07:23;9.37;;;4.47;;
2542;SDS011;1116;51.502;7.414;2023-07-31T05:09:54;7.70;;;4.70;;
2542;SDS011;1116;51.502;7.414;2023-07-31T05:12:25;6.20;;;4.00;;
2542;SDS011;1116;51.502;7.414;2023-07-31T05:14:58;15.23;;;5.17;;
2542;SDS011;1116;51.502;7.414;2023-07-31T05:17:29;11.60;;;5.00;;
2542;SDS011;1116;51.502;7.414;2023-07-31T05:20:00;8.10;;;4.40;;
2542;SDS011;1116;51.502;7.414;2023-07-31T05:22:31;8.60;;;4.50;;
2542;SDS011;1116;51.502;7.414;2023-07-31T05:25:03;10.07;;;5.23;;
2542;SDS011;1116;51.502;7.414;2023-07-31T05:27:34;6.67;;;4.60;;
2542;SDS011;1116;51.502;7.414;2023-07-31T05:30:08;8.10;;;4.90;;
2542;SDS011;1116;51.502;7.414;2023-07-31T05:32:39;7.93;;;4.77;;
2542;SDS011;1116;51.502;7.414;2023-07-31T05:35:10;8.23;;;4.77;;
2542;SDS011;1116;51.502;7.414;2023-07-31T05:37:41;11.53;;;4.90;;
2542;SDS011;1116;51.502;7.414;2023-07-31T05:40:12;9.60;;;5.60;;
2542;SDS011;1116;51.502;7.414;2023-07-31T05:42:44;6.80;;;4.03;;
2542;SDS011;1116;51.502;7.414;2023-07-31T05:45:20;6.83;;;4.33;;
2542;SDS011;1116;51.502;7.414;2023-07-31T05:47:51;8.80;;;4.90;;
2542;SDS011;1116;51.502;7.414;2023-07-31T05:50:22;6.57;;;4.60;;
2542;SDS011;1116;51.502;7.414;2023-07-31T05:52:56;7.83;;;4.07;;
2542;SDS011;1116;51.502;7.414;2023-07-31T05:55:32;8.63;;;4.50;;
2542;SDS011;1116;51.502;7.414;2023-07-31T05:58:03;8.77;;;4.97;;
2542;SDS011;1116;51.502;7.414;2023-07-31T06:00:37;5.90;;;4.43;;
2542;SDS011;1116;51.502;7.414;2023-07-31T06:03:08;7.37;;;5.00;;
2542;SDS011;1116;51.502;7.414;2023-07-31T06:05:42;7.90;;;4.67;;
2542;SDS011;1116;51.502;7.414;2023-07-31T06:08:13;11.10;;;5.10;;
2542;SDS011;1116;51.502;7.414;2023-07-31T06:10:47;7.10;;;4.90;;
2542;SDS011;1116;51.502;7.414;2023-07-31T06:13:18;7.20;;;4.70;;
2542;SDS011;1116;51.502;7.414;2023-07-31T06:15:52;6.70;;;4.67;;
2542;SDS011;1116;51.502;7.414;2023-07-31T06:18:23;7.50;;;5.87;;
2542;SDS011;1116;51.502;7.414;2023-07-31T06:20:54;8.73;;;5.10;;
2542;SDS011;1116;51.502;7.414;2023-07-31T06:23:27;7.10;;;4.83;;
2542;SDS011;1116;51.502;7.414;2023-07-31T06:25:58;7.20;;;4.80;;
2542;SDS011;1116;51.502;7.414;2023-07-31T06:28:29;7.10;;;5.10;;
2542;SDS011;1116;51.502;7.414;2023-07-31T06:31:03;6.77;;;4.93;;
2542;SDS011;1116;51.502;7.414;2023-07-31T06:33:35;9.40;;;5.00;;
2542;SDS011;1116;51.502;7.414;2023-07-31T06:36:06;9.40;;;4.77;;
2542;SDS011;1116;51.502;7.414;2023-07-31T06:38:37;9.73;;;5.50;;
2542;SDS011;1116;51.502;7.414;2023-07-31T06:41:08;7.90;;;5.07;;
2542;SDS011;1116;51.502;7.414;2023-07-31T06:43:39;8.13;;;5.40;;
2542;SDS011;1116;51.502;7.414;2023-07-31T06:46:13;11.50;;;5.50;;
2542;SDS011;1116;51.502;7.414;2023-07-31T06:48:44;6.87;;;5.50;;
2542;SDS011;1116;51.502;7.414;2023-07-31T06:51:15;8.40;;;5.60;;
2542;SDS011;1116;51.502;7.414;2023-07-31T06:53:46;7.50;;;5.03;;
2542;SDS011;1116;51.502;7.414;2023-07-31T06:56:17;8.33;;;5.70;;
2542;SDS011;1116;51.502;7.414;2023-07-31T06:58:48;8.30;;;4.63;;
2542;SDS011;1116;51.502;7.414;2023-07-31T07:01:22;7.23;;;4.90;;
2542;SDS011;1116;51.502;7.414;2023-07-31T07:03:53;7.07;;;4.70;;
2542;SDS011;1116;51.502;7.414;2023-07-31T07:06:24;8.90;;;4.43;;
2542;SDS011;1116;51.502;7.414;2023-07-31T07:08:55;7.67;;;4.93;;
2542;SDS011;1116;51.502;7.414;2023-07-31T07:11:26;7.40;;;5.00;;
2542;SDS011;1116;51.502;7.414;2023-07-31T07:13:57;6.30;;;4.53;;
2542;SDS011;1116;51.502;7.414;2023-07-31T07:16:31;8.43;;;5.00;;
2542;SDS011;1116;51.502;7.414;2023-07-31T07:19:02;5.37;;;4.30;;
2542;SDS011;1116;51.502;7.414;2023-07-31T07:21:33;5.83;;;4.37;;
2542;SDS011;1116;51.502;7.414;2023-07-31T07:24:04;7.90;;;4.70;;
2542;SDS011;1116;51.502;7.414;2023-07-31T07:26:35;6.00;;;4.50;;
2542;SDS011;1116;51.502;7.414;2023-07-31T07:29:06;6.53;;;4.10;;
2542;SDS011;1116;51.502;7.414;2023-07-31T07:31:41;7.30;;;4.13;;
2542;SDS011;1116;51.502;7.414;2023-07-31T07:34:12;5.57;;;4.20;;
2542;SDS011;1116;51.502;7.414;2023-07-31T07:36:43;8.53;;;4.93;;
2542;SDS011;1116;51.502;7.414;2023-07-31T07:39:14;5.93;;;4.63;;
2542;SDS011;1116;51.502;7.414;2023-07-31T07:41:45;7.00;;;4.80;;
2542;SDS011;1116;51.502;7.414;2023-07-31T07:44:16;6.70;;;4.87;;
2542;SDS011;1116;51.502;7.414;2023-07-31T07:46:50;4.80;;;3.90;;
2542;SDS011;1116;51.502;7.414;2023-07-31T07:49:21;5.93;;;4.50;;
2542;SDS011;1116;51.502;7.414;2023-07-31T07:51:52;7.23;;;4.73;;
2542;SDS011;1116;51.502;7.414;2023-07-31T07:54:23;5.87;;;4.40;;
2542;SDS011;1116;51.502;7.414;2023-07-31T07:56:54;4.60;;;4.07;;
2542;SDS011;1116;51.502;7.414;2023-07-31T07:59:25;6.47;;;4.70;;
2542;SDS011;1116;51.502;7.414;2023-07-31T08:01:59;4.83;;;4.37;;
2542;SDS011;1116;51.502;7.414;2023-07-31T08:04:30;5.23;;;4.27;;
2542;SDS011;1116;51.502;7.414;2023-07-31T08:07:01;6.03;;;4.10;;
2542;SDS011;1116;51.502;7.414;2023-07-31T08:09:32;5.53;;;3.93;;
2542;SDS011;1116;51.502;7.414;2023-07-31T08:12:06;6.47;;;3.73;;
2542;SDS011;1116;51.502;7.414;2023-07-31T08:14:37;4.70;;;3.80;;
2542;SDS011;1116;51.502;7.414;2023-07-31T08:17:11;5.73;;;4.17;;
2542;SDS011;1116;51.502;7.414;2023-07-31T08:19:43;5.20;;;4.50;;
2542;SDS011;1116;51.502;7.414;2023-07-31T08:22:14;6.67;;;4.17;;
2542;SDS011;1116;51.502;7.414;2023-07-31T08:24:45;6.30;;;4.20;;
2542;SDS011;1116;51.502;7.414;2023-07-31T08:27:16;5.13;;;4.20;;
2542;SDS011;1116;51.502;7.414;2023-07-31T08:29:47;7.40;;;4.50;;
2542;SDS011;1116;51.502;7.414;2023-07-31T08:32:21;4.50;;;3.57;;
2542;SDS011;1116;51.502;7.414;2023-07-31T08:34:52;7.07;;;4.10;;
2542;SDS011;1116;51.502;7.414;2023-07-31T08:37:23;5.93;;;3.50;;
2542;SDS011;1116;51.502;7.414;2023-07-31T08:39:54;4.80;;;4.00;;
2542;SDS011;1116;51.502;7.414;2023-07-31T08:42:25;5.60;;;4.00;;
2542;SDS011;1116;51.502;7.414;2023-07-31T08:44:58;5.53;;;4.20;;
2542;SDS011;1116;51.502;7.414;2023-07-31T08:47:34;5.90;;;3.77;;
2542;SDS011;1116;51.502;7.414;2023-07-31T08:50:06;6.03;;;4.20;;
2542;SDS011;1116;51.502;7.414;2023-07-31T08:52:38;5.00;;;3.33;;
2542;SDS011;1116;51.502;7.414;2023-07-31T08:55:09;4.50;;;3.27;;
2542;SDS011;1116;51.502;7.414;2023-07-31T08:57:40;6.10;;;3.67;;
2542;SDS011;1116;51.502;7.414;2023-07-31T09:00:13;4.37;;;3.30;;
2542;SDS011;1116;51.502;7.414;2023-07-31T09:02:48;3.73;;;3.00;;
2542;SDS011;1116;51.502;7.414;2023-07-31T09:05:25;4.53;;;2.80;;
2542;SDS011;1116;51.502;7.414;2023-07-31T09:07:57;4.53;;;2.97;;
2542;SDS011;1116;51.502;7.414;2023-07-31T09:10:29;3.67;;;2.73;;
2542;SDS011;1116;51.502;7.414;2023-07-31T09:13:00;4.63;;;2.23;;
2542;SDS011;1116;51.502;7.414;2023-07-31T09:15:32;3.60;;;2.97;;
2542;SDS011;1116;51.502;7.414;2023-07-31T09:18:09;3.33;;;2.30;;
2542;SDS011;1116;51.502;7.414;2023-07-31T09:20:41;3.30;;;2.73;;
2542;SDS011;1116;51.502;7.414;2023-07-31T09:23:15;4.17;;;2.83;;
2542;SDS011;1116;51.502;7.414;2023-07-31T09:25:49;3.77;;;2.80;;
2542;SDS011;1116;51.502;7.414;2023-07-31T09:28:20;3.90;;;2.90;;
2542;SDS011;1116;51.502;7.414;2023-07-31T09:31:01;3.60;;;3.10;;
2542;SDS011;1116;51.502;7.414;2023-07-31T09:33:35;3.40;;;2.70;;
2542;SDS011;1116;51.502;7.414;2023-07-31T09:36:28;3.57;;;2.70;;
2542;SDS011;1116;51.502;7.414;2023-07-31T09:39:03;4.10;;;3.20;;
2542;SDS011;1116;51.502;7.414;2023-07-31T09:41:36;3.70;;;2.73;;
2542;SDS011;1116;51.502;7.414;2023-07-31T09:44:08;4.13;;;2.73;;
2542;SDS011;1116;51.502;7.414;2023-07-31T09:46:42;4.00;;;2.70;;
2542;SDS011;1116;51.502;7.414;2023-07-31T09:49:15;4.27;;;2.63;;
2542;SDS011;1116;51.502;7.414;2023-07-31T09:51:46;3.70;;;3.07;;
2542;SDS011;1116;51.502;7.414;2023-07-31T09:54:17;3.23;;;2.83;;
2542;SDS011;1116;51.502;7.414;2023-07-31T09:56:48;3.33;;;2.73;;
2542;SDS011;1116;51.502;7.414;2023-07-31T09:59:20;4.47;;;2.67;;
2542;SDS011;1116;51.502;7.414;2023-07-31T10:01:51;4.30;;;3.20;;
2542;SDS011;1116;51.502;7.414;2023-07-31T10:04:27;4.63;;;2.70;;
2542;SDS011;1116;51.502;7.414;2023-07-31T10:06:59;2.90;;;2.10;;
2542;SDS011;1116;51.502;7.414;2023-07-31T10:09:34;4.53;;;2.87;;
2542;SDS011;1116;51.502;7.414;2023-07-31T10:12:05;2.63;;;2.43;;
2542;SDS011;1116;51.502;7.414;2023-07-31T10:14:41;3.77;;;2.60;;
2542;SDS011;1116;51.502;7.414;2023-07-31T10:17:14;3.43;;;3.13;;
2542;SDS011;1116;51.502;7.414;2023-07-31T10:19:49;3.20;;;2.90;;
2542;SDS011;1116;51.502;7.414;2023-07-31T10:22:21;2.40;;;2.20;;
2542;SDS011;1116;51.502;7.414;2023-07-31T10:24:52;2.47;;;1.93;;
2542;SDS011;1116;51.502;7.414;2023-07-31T10:27:25;2.77;;;2.23;;
2542;SDS011;1116;51.502;7.414;2023-07-31T10:29:57;5.10;;;2.37;;
2542;SDS011;1116;51.502;7.414;2023-07-31T10:32:30;2.90;;;1.80;;
2542;SDS011;1116;51.502;7.414;2023-07-31T10:35:04;3.30;;;2.10;;
2542;SDS011;1116;51.502;7.414;2023-07-31T10:37:37;1.80;;;1.70;;
2542;SDS011;1116;51.502;7.414;2023-07-31T10:40:10;1.70;;;1.60;;
2542;SDS011;1116;51.502;7.414;2023-07-31T10:42:45;1.80;;;1.70;;
2542;SDS011;1116;51.502;7.414;2023-07-31T10:45:24;1.70;;;1.60;;
2542;SDS011;1116;51.502;7.414;2023-07-31T10:47:59;1.70;;;1.60;;
2542;SDS011;1116;51.502;7.414;2023-07-31T10:50:36;2.00;;;1.27;;
2542;SDS011;1116;51.502;7.414;2023-07-31T10:53:08;2.23;;;1.57;;
2542;SDS011;1116;51.502;7.414;2023-07-31T10:55:53;2.80;;;1.50;;
2542;SDS011;1116;51.502;7.414;2023-07-31T10:58:29;2.37;;;1.60;;
2542;SDS011;1116;51.502;7.414;2023-07-31T11:01:02;1.80;;;1.70;;
2542;SDS011;1116;51.502;7.414;2023-07-31T11:03:41;1.80;;;1.70;;
2542;SDS011;1116;51.502;7.414;2023-07-31T11:06:16;2.20;;;2.00;;
2542;SDS011;1116;51.502;7.414;2023-07-31T11:08:47;2.30;;;2.10;;
2542;SDS011;1116;51.502;7.414;2023-07-31T11:11:19;2.03;;;1.90;;
2542;SDS011;1116;51.502;7.414;2023-07-31T11:13:51;2.43;;;2.20;;
2542;SDS011;1116;51.502;7.414;2023-07-31T11:16:24;2.90;;;2.37;;
2542;SDS011;1116;51.502;7.414;2023-07-31T11:18:55;3.60;;;2.63;;
2542;SDS011;1116;51.502;7.414;2023-07-31T11:21:29;2.80;;;2.60;;
2542;SDS011;1116;51.502;7.414;2023-07-31T11:24:00;3.80;;;3.27;;
2542;SDS011;1116;51.502;7.414;2023-07-31T11:26:31;5.53;;;3.60;;
2542;SDS011;1116;51.502;7.414;2023-07-31T11:29:02;3.40;;;3.00;;
2542;SDS011;1116;51.502;7.414;2023-07-31T11:31:41;4.10;;;3.60;;
2542;SDS011;1116;51.502;7.414;2023-07-31T11:34:12;4.00;;;3.50;;
2542;SDS011;1116;51.502;7.414;2023-07-31T11:36:54;4.17;;;3.50;;
2542;SDS011;1116;51.502;7.414;2023-07-31T11:39:26;4.10;;;3.70;;
2542;SDS011;1116;51.502;7.414;2023-07-31T11:41:58;3.50;;;3.20;;
2542;SDS011;1116;51.502;7.414;2023-07-31T11:44:37;5.90;;;3.93;;
2542;SDS011;1116;51.502;7.414;2023-07-31T11:47:11;4.43;;;3.43;;
2542;SDS011;1116;51.502;7.414;2023-07-31T11:49:43;7.00;;;4.03;;
2542;SDS011;1116;51.502;7.414;2023-07-31T11:52:16;4.93;;;3.90;;
2542;SDS011;1116;51.502;7.414;2023-07-31T11:54:50;6.60;;;3.77;;
2542;SDS011;1116;51.502;7.414;2023-07-31T11:57:22;5.33;;;4.03;;
2542;SDS011;1116;51.502;7.414;2023-07-31T11:59:54;6.03;;;3.60;;
2542;SDS011;1116;51.502;7.414;2023-07-31T12:02:27;6.10;;;4.00;;
2542;SDS011;1116;51.502;7.414;2023-07-31T12:04:58;4.07;;;3.33;;
2542;SDS011;1116;51.502;7.414;2023-07-31T12:07:29;5.80;;;3.77;;
2542;SDS011;1116;51.502;7.414;2023-07-31T12:10:23;3.87;;;3.47;;
2542;SDS011;1116;51.502;7.414;2023-07-31T12:13:02;6.60;;;3.83;;
2542;SDS011;1116;51.502;7.414;2023-07-31T12:15:35;3.80;;;3.50;;
2542;SDS011;1116;51.502;7.414;2023-07-31T12:18:11;4.57;;;4.10;;
2542;SDS011;1116;51.502;7.414;2023-07-31T12:20:43;5.30;;;3.43;;
2542;SDS011;1116;51.502;7.414;2023-07-31T12:23:19;4.10;;;3.10;;
2542;SDS011;1116;51.502;7.414;2023-07-31T12:26:02;3.27;;;2.77;;
2542;SDS011;1116;51.502;7.414;2023-07-31T12:28:37;4.23;;;3.10;;
2542;SDS011;1116;51.502;7.414;2023-07-31T12:31:11;4.60;;;2.80;;
2542;SDS011;1116;51.502;7.414;2023-07-31T12:33:55;4.77;;;3.00;;
2542;SDS011;1116;51.502;7.414;2023-07-31T12:36:26;4.10;;;2.73;;
2542;SDS011;1116;51.502;7.414;2023-07-31T12:39:02;2.57;;;2.37;;
2542;SDS011;1116;51.502;7.414;2023-07-31T12:41:34;3.80;;;2.93;;
2542;SDS011;1116;51.502;7.414;2023-07-31T12:44:05;3.67;;;2.97;;
2542;SDS011;1116;51.502;7.414;2023-07-31T12:46:37;3.63;;;2.80;;
2542;SDS011;1116;51.502;7.414;2023-07-31T12:49:09;3.77;;;2.87;;
2542;SDS011;1116;51.502;7.414;2023-07-31T12:51:40;3.03;;;2.33;;
2542;SDS011;1116;51.502;7.414;2023-07-31T12:54:16;3.27;;;2.60;;
2542;SDS011;1116;51.502;7.414;2023-07-31T12:56:47;2.80;;;2.60;;
2542;SDS011;1116;51.502;7.414;2023-07-31T12:59:19;4.43;;;2.93;;
2542;SDS011;1116;51.502;7.414;2023-07-31T13:01:49;3.90;;;2.73;;
2542;SDS011;1116;51.502;7.414;2023-07-31T13:04:21;3.13;;;2.83;;
2542;SDS011;1116;51.502;7.414;2023-07-31T13:06:55;4.80;;;2.37;;
2542;SDS011;1116;51.502;7.414;2023-07-31T13:09:29;2.73;;;2.53;;
2542;SDS011;1116;51.502;7.414;2023-07-31T13:12:00;2.60;;;2.30;;
2542;SDS011;1116;51.502;7.414;2023-07-31T13:14:31;3.60;;;2.30;;
2542;SDS011;1116;51.502;7.414;2023-07-31T13:17:02;2.10;;;1.90;;
2542;SDS011;1116;51.502;7.414;2023-07-31T13:19:34;2.63;;;2.40;;
2542;SDS011;1116;51.502;7.414;2023-07-31T13:22:05;3.13;;;2.47;;
2542;SDS011;1116;51.502;7.414;2023-07-31T13:24:39;2.87;;;2.17;;
2542;SDS011;1116;51.502;7.414;2023-07-31T13:27:10;2.43;;;2.20;;
2542;SDS011;1116;51.502;7.414;2023-07-31T13:29:44;2.33;;;2.07;;
2542;SDS011;1116;51.502;7.414;2023-07-31T13:32:15;2.90;;;2.37;;
2542;SDS011;1116;51.502;7.414;2023-07-31T13:34:47;2.80;;;2.60;;
2542;SDS011;1116;51.502;7.414;2023-07-31T13:37:19;3.03;;;2.00;;
2542;SDS011;1116;51.502;7.414;2023-07-31T13:39:52;2.40;;;2.10;;
2542;SDS011;1116;51.502;7.414;2023-07-31T13:42:23;2.17;;;1.90;;
2542;SDS011;1116;51.502;7.414;2023-07-31T13:44:56;2.60;;;2.13;;
2542;SDS011;1116;51.502;7.414;2023-07-31T13:47:31;3.30;;;1.80;;
2542;SDS011;1116;51.502;7.414;2023-07-31T13:50:03;2.53;;;2.23;;
2542;SDS011;1116;51.502;7.414;2023-07-31T13:52:38;2.00;;;1.80;;
2542;SDS011;1116;51.502;7.414;2023-07-31T13:55:12;3.37;;;2.33;;
2542;SDS011;1116;51.502;7.414;2023-07-31T13:57:43;2.33;;;2.10;;
2542;SDS011;1116;51.502;7.414;2023-07-31T14:00:14;2.47;;;2.27;;
2542;SDS011;1116;51.502;7.414;2023-07-31T14:02:45;2.47;;;2.17;;
2542;SDS011;1116;51.502;7.414;2023-07-31T14:05:16;2.40;;;2.20;;
2542;SDS011;1116;51.502;7.414;2023-07-31T14:07:48;5.60;;;2.93;;
2542;SDS011;1116;51.502;7.414;2023-07-31T14:10:22;3.30;;;2.63;;
2542;SDS011;1116;51.502;7.414;2023-07-31T14:12:53;3.03;;;2.50;;
2542;SDS011;1116;51.502;7.414;2023-07-31T14:15:24;2.83;;;2.53;;
2542;SDS011;1116;51.502;7.414;2023-07-31T14:17:56;3.27;;;2.97;;
2542;SDS011;1116;51.502;7.414;2023-07-31T14:20:29;3.50;;;3.20;;
2542;SDS011;1116;51.502;7.414;2023-07-31T14:23:01;3.50;;;2.87;;
2542;SDS011;1116;51.502;7.414;2023-07-31T14:25:35;3.43;;;2.83;;
2542;SDS011;1116;51.502;7.414;2023-07-31T14:28:06;3.60;;;3.00;;
2542;SDS011;1116;51.502;7.414;2023-07-31T14:30:37;4.07;;;3.67;;
2542;SDS011;1116;51.502;7.414;2023-07-31T14:33:08;4.60;;;3.17;;
2542;SDS011;1116;51.502;7.414;2023-07-31T14:35:39;3.23;;;2.87;;
2542;SDS011;1116;51.502;7.414;2023-07-31T14:38:10;4.40;;;3.10;;
2542;SDS011;1116;51.502;7.414;2023-07-31T14:40:44;3.70;;;3.20;;
2542;SDS011;1116;51.502;7.414;2023-07-31T14:43:15;2.93;;;2.60;;
2542;SDS011;1116;51.502;7.414;2023-07-31T14:45:46;4.53;;;3.00;;
2542;SDS011;1116;51.502;7.414;2023-07-31T14:48:17;4.37;;;2.97;;
2542;SDS011;1116;51.502;7.414;2023-07-31T14:50:49;5.80;;;3.53;;
2542;SDS011;1116;51.502;7.414;2023-07-31T14:53:20;2.90;;;2.70;;
2542;SDS011;1116;51.502;7.414;2023-07-31T14:55:54;3.83;;;3.43;;
2542;SDS011;1116;51.502;7.414;2023-07-31T14:58:25;6.20;;;3.47;;
2542;SDS011;1116;51.502;7.414;2023-07-31T15:00:56;5.60;;;3.80;;
2542;SDS011;1116;51.502;7.414;2023-07-31T15:03:27;3.67;;;3.27;;
2542;SDS011;1116;51.502;7.414;2023-07-31T15:05:59;4.73;;;3.53;;
2542;SDS011;1116;51.502;7.414;2023-07-31T15:08:29;6.97;;;4.10;;
2542;SDS011;1116;51.502;7.414;2023-07-31T15:11:03;4.70;;;3.40;;
2542;SDS011;1116;51.502;7.414;2023-07-31T15:13:35;7.20;;;3.67;;
2542;SDS011;1116;51.502;7.414;2023-07-31T15:16:06;3.60;;;2.90;;
2542;SDS011;1116;51.502;7.414;2023-07-31T15:18:37;3.77;;;3.10;;
2542;SDS011;1116;51.502;7.414;2023-07-31T15:21:08;4.70;;;3.53;;
2542;SDS011;1116;51.502;7.414;2023-07-31T15:23:39;4.90;;;2.80;;
2542;SDS011;1116;51.502;7.414;2023-07-31T15:26:13;4.70;;;3.13;;
2542;SDS011;1116;51.502;7.414;2023-07-31T15:28:47;4.00;;;3.20;;
2542;SDS011;1116;51.502;7.414;2023-07-31T15:31:20;8.40;;;3.13;;
2542;SDS011;1116;51.502;7.414;2023-07-31T15:33:52;3.60;;;3.30;;
2542;SDS011;1116;51.502;7.414;2023-07-31T15:36:26;4.03;;;3.40;;
2542;SDS011;1116;51.502;7.414;2023-07-31T15:38:57;4.70;;;3.07;;
2542;SDS011;1116;51.502;7.414;2023-07-31T15:41:30;3.70;;;3.30;;
2542;SDS011;1116;51.502;7.414;2023-07-31T15:44:02;3.60;;;3.00;;
2542;SDS011;1116;51.502;7.414;2023-07-31T15:46:33;3.53;;;2.90;;
2542;SDS011;1116;51.502;7.414;2023-07-31T15:49:04;4.50;;;4.10;;